createdAt,value
2022-09-25T00:01:18.088Z,30.10
2022-09-25T00:03:21.176Z,30.23
2022-09-25T00:05:23.851Z,29.50
2022-09-25T00:07:26.513Z,28.23
2022-09-25T00:09:29.202Z,27.83
2022-09-25T00:11:32.853Z,30.43
2022-09-25T00:13:36.851Z,29.80
2022-09-25T00:15:39.717Z,30.00
2022-09-25T00:17:42.975Z,29.70
2022-09-25T00:19:50.835Z,29.70
2022-09-25T00:21:53.750Z,32.03
2022-09-25T00:23:56.433Z,30.50
2022-09-25T00:25:59.923Z,31.67
2022-09-25T00:28:03.082Z,32.00
2022-09-25T00:30:08.453Z,32.20
2022-09-25T00:32:11.894Z,33.60
2022-09-25T00:34:14.579Z,34.77
2022-09-25T00:36:17.249Z,35.13
2022-09-25T00:38:19.929Z,33.33
2022-09-25T00:40:24.681Z,34.97
2022-09-25T00:42:27.457Z,35.03
2022-09-25T00:44:56.508Z,34.73
2022-09-25T00:47:00.947Z,34.40
2022-09-25T00:49:04.916Z,34.03
2022-09-25T00:51:07.600Z,34.80
2022-09-25T00:53:12.294Z,33.63
2022-09-25T00:55:15.001Z,33.77
2022-09-25T00:57:19.471Z,33.07
2022-09-25T00:59:25.187Z,32.57
2022-09-25T01:01:27.954Z,32.87
2022-09-25T01:03:31.984Z,32.47
2022-09-25T01:05:36.381Z,30.93
2022-09-25T01:07:40.163Z,33.60
2022-09-25T01:09:42.852Z,34.63
2022-09-25T01:11:46.148Z,34.97
2022-09-25T01:13:49.148Z,35.70
2022-09-25T01:15:55.211Z,35.93
2022-09-25T01:18:02.955Z,36.10
2022-09-25T01:20:13.609Z,35.63
2022-09-25T01:22:19.825Z,37.50
2022-09-25T01:24:32.636Z,38.60
2022-09-25T01:27:00.408Z,37.50
2022-09-25T01:29:07.828Z,36.30
2022-09-25T01:31:12.648Z,39.08
2022-09-25T01:33:16.975Z,37.73
2022-09-25T01:35:22.661Z,37.53
2022-09-25T01:37:27.293Z,36.90
2022-09-25T01:39:32.283Z,38.70
2022-09-25T01:41:38.682Z,36.80
2022-09-25T01:43:42.750Z,37.47
2022-09-25T01:45:48.676Z,34.13
2022-09-25T01:47:51.658Z,34.83
2022-09-25T01:49:56.179Z,34.57
2022-09-25T01:51:58.847Z,32.87
2022-09-25T01:54:03.976Z,32.70
2022-09-25T01:56:08.385Z,30.80
2022-09-25T01:58:12.423Z,29.80
2022-09-25T02:00:17.150Z,30.63
2022-09-25T02:02:27.048Z,29.20
2022-09-25T02:04:30.681Z,29.40
2022-09-25T02:06:34.746Z,30.23
2022-09-25T02:08:39.673Z,28.53
2022-09-25T02:10:45.006Z,28.90
2022-09-25T02:12:48.867Z,30.20
2022-09-25T02:14:53.702Z,27.97
2022-09-25T02:16:57.564Z,28.13
2022-09-25T02:19:19.573Z,30.27
2022-09-25T02:21:26.774Z,27.80
2022-09-25T02:23:33.878Z,27.77
2022-09-25T02:25:38.435Z,28.03
2022-09-25T02:27:41.819Z,25.10
2022-09-25T02:29:44.509Z,26.00
2022-09-25T02:31:49.036Z,26.97
2022-09-25T02:33:51.718Z,27.50
2022-09-25T02:35:55.741Z,28.10
2022-09-25T02:37:58.501Z,28.50
2022-09-25T02:40:02.008Z,26.43
2022-09-25T02:42:12.556Z,25.83
2022-09-25T02:44:18.633Z,23.97
2022-09-25T02:46:25.108Z,24.13
2022-09-25T02:48:29.967Z,24.87
2022-09-25T02:50:37.792Z,24.13
2022-09-25T02:52:45.511Z,24.57
2022-09-25T02:54:49.861Z,25.83
2022-09-25T02:56:54.383Z,23.50
2022-09-25T02:58:58.325Z,25.10
2022-09-25T03:01:01.329Z,23.73
2022-09-25T03:03:06.123Z,24.60
2022-09-25T03:05:10.912Z,23.10
2022-09-25T03:07:13.581Z,22.87
2022-09-25T03:09:16.634Z,20.83
2022-09-25T03:11:21.232Z,20.60
2022-09-25T03:13:26.559Z,18.50
2022-09-25T03:15:29.317Z,17.90
2022-09-25T03:17:33.334Z,16.60
2022-09-25T03:19:36.734Z,18.10
2022-09-25T03:21:39.402Z,17.43
2022-09-25T03:23:42.081Z,16.90
2022-09-25T03:25:49.944Z,16.40
2022-09-25T03:27:53.126Z,17.57
2022-09-25T03:29:56.169Z,15.90
2022-09-25T03:31:58.824Z,16.60
2022-09-25T03:34:01.553Z,16.83
2022-09-25T03:36:06.308Z,17.60
2022-09-25T03:38:10.484Z,16.80
2022-09-25T03:40:13.244Z,16.53
2022-09-25T03:42:18.041Z,15.40
2022-09-25T03:44:20.704Z,16.10
2022-09-25T03:46:24.927Z,15.03
2022-09-25T03:48:27.634Z,15.53
2022-09-25T03:50:30.310Z,15.10
2022-09-25T03:52:32.995Z,16.30
2022-09-25T03:54:35.667Z,16.10
2022-09-25T03:56:38.327Z,15.20
2022-09-25T03:58:42.332Z,15.13
2022-09-25T04:00:45.789Z,14.77
2022-09-25T04:02:49.624Z,15.80
2022-09-25T04:04:54.924Z,14.67
2022-09-25T04:06:57.747Z,14.57
2022-09-25T04:09:00.405Z,13.73
2022-09-25T04:11:03.381Z,15.47
2022-09-25T04:13:06.597Z,14.23
2022-09-25T04:15:11.610Z,13.77
2022-09-25T04:17:14.369Z,13.77
2022-09-25T04:19:17.364Z,13.30
2022-09-25T04:21:20.049Z,14.60
2022-09-25T04:23:22.712Z,13.90
2022-09-25T04:25:25.629Z,13.70
2022-09-25T04:27:28.298Z,13.17
2022-09-25T04:29:32.102Z,13.40
2022-09-25T04:31:36.182Z,12.87
2022-09-25T04:33:47.429Z,11.00
2022-09-25T04:35:50.283Z,12.43
2022-09-25T04:37:52.957Z,11.63
2022-09-25T04:39:55.700Z,10.53
2022-09-25T04:41:58.371Z,11.53
2022-09-25T04:44:01.162Z,11.20
2022-09-25T04:46:04.344Z,10.00
2022-09-25T04:48:08.421Z,10.30
2022-09-25T04:50:11.114Z,10.13
2022-09-25T04:52:14.996Z,9.93
2022-09-25T04:54:17.820Z,10.50
2022-09-25T04:56:20.513Z,10.10
2022-09-25T04:58:23.226Z,9.33
2022-09-25T05:00:27.391Z,10.23
2022-09-25T05:02:30.129Z,10.00
2022-09-25T05:04:34.287Z,11.03
2022-09-25T05:06:36.961Z,8.90
2022-09-25T05:08:39.634Z,9.77
2022-09-25T05:10:42.864Z,9.70
2022-09-25T05:12:45.968Z,9.43
2022-09-25T05:14:48.733Z,9.70
2022-09-25T05:16:51.410Z,10.17
2022-09-25T05:18:54.067Z,9.53
2022-09-25T05:20:58.084Z,10.17
2022-09-25T05:23:04.171Z,8.93
2022-09-25T05:25:08.018Z,8.70
2022-09-25T05:27:10.717Z,9.27
2022-09-25T05:29:13.376Z,8.97
2022-09-25T05:31:16.598Z,10.50
2022-09-25T05:33:19.936Z,14.57
2022-09-25T05:35:23.985Z,23.10
2022-09-25T05:37:28.013Z,10.73
2022-09-25T05:39:30.679Z,10.03
2022-09-25T05:41:36.124Z,9.40
2022-09-25T05:43:40.148Z,8.27
2022-09-25T05:45:42.844Z,8.70
2022-09-25T05:47:45.595Z,7.93
2022-09-25T05:49:48.268Z,7.80
2022-09-25T05:51:50.928Z,7.83
2022-09-25T05:53:55.396Z,6.60
2022-09-25T05:55:58.989Z,6.93
2022-09-25T05:58:02.446Z,8.13
2022-09-25T06:00:06.492Z,6.30
2022-09-25T06:02:11.451Z,6.37
2022-09-25T06:04:14.184Z,7.07
2022-09-25T06:06:16.975Z,7.30
2022-09-25T06:08:19.706Z,6.90
2022-09-25T06:10:25.165Z,7.37
2022-09-25T06:12:30.035Z,8.43
2022-09-25T06:14:32.900Z,7.10
2022-09-25T06:16:35.756Z,6.47
2022-09-25T06:18:38.435Z,6.57
2022-09-25T06:20:41.118Z,7.00
2022-09-25T06:22:44.331Z,7.70
2022-09-25T06:24:48.638Z,7.03
2022-09-25T06:26:52.660Z,6.83
2022-09-25T06:29:00.994Z,6.77
2022-09-25T06:31:06.067Z,7.00
2022-09-25T06:33:12.641Z,7.77
2022-09-25T06:35:15.632Z,7.23
2022-09-25T06:37:18.287Z,8.70
2022-09-25T06:39:20.962Z,8.50
2022-09-25T06:41:24.321Z,9.25
2022-09-25T06:43:28.432Z,10.90
2022-09-25T06:45:32.400Z,11.27
2022-09-25T06:47:35.053Z,9.97
2022-09-25T06:49:37.715Z,10.27
2022-09-25T06:51:40.400Z,11.27
2022-09-25T06:53:43.073Z,10.60
2022-09-25T06:55:46.102Z,10.50
2022-09-25T06:57:48.786Z,11.53
2022-09-25T06:59:52.806Z,11.13
2022-09-25T07:01:55.595Z,12.60
2022-09-25T07:03:58.023Z,11.23
2022-09-25T07:06:00.938Z,12.97
2022-09-25T07:08:03.715Z,11.80
2022-09-25T07:10:07.459Z,11.93
2022-09-25T07:12:11.216Z,13.27
2022-09-25T07:14:14.038Z,12.27
2022-09-25T07:16:18.941Z,13.30
2022-09-25T07:18:21.665Z,13.60
2022-09-25T07:20:24.561Z,11.80
2022-09-25T07:22:27.301Z,13.50
2022-09-25T07:24:29.987Z,12.67
2022-09-25T07:26:34.451Z,13.27
2022-09-25T07:28:37.247Z,13.07
2022-09-25T07:30:39.991Z,12.37
2022-09-25T07:32:46.453Z,12.17
2022-09-25T07:34:51.532Z,11.50
2022-09-25T07:36:55.209Z,11.07
2022-09-25T07:38:57.867Z,11.37
2022-09-25T07:41:00.533Z,10.83
2022-09-25T07:43:03.461Z,10.90
2022-09-25T07:45:06.829Z,11.63
2022-09-25T07:47:13.400Z,10.17
2022-09-25T07:49:17.410Z,10.97
2022-09-25T07:51:21.855Z,10.70
2022-09-25T07:53:24.568Z,10.10
2022-09-25T07:55:28.394Z,10.87
2022-09-25T07:57:31.116Z,10.53
2022-09-25T07:59:33.804Z,9.83
2022-09-25T08:01:42.614Z,11.70
2022-09-25T08:03:46.232Z,9.90
2022-09-25T08:05:50.270Z,9.73
2022-09-25T08:07:53.818Z,8.30
2022-09-25T08:09:56.501Z,9.83
2022-09-25T08:11:59.187Z,8.90
2022-09-25T08:14:01.899Z,9.80
2022-09-25T08:16:04.791Z,9.73
2022-09-25T08:18:07.514Z,9.30
2022-09-25T08:20:10.499Z,8.20
2022-09-25T08:22:14.837Z,9.23
2022-09-25T08:24:17.519Z,9.53
2022-09-25T08:26:20.953Z,8.70
2022-09-25T08:28:23.982Z,10.63
2022-09-25T08:30:26.674Z,9.30
2022-09-25T08:32:29.336Z,9.60
2022-09-25T08:34:41.385Z,8.70
2022-09-25T08:36:44.681Z,9.20
2022-09-25T08:38:48.715Z,9.97
2022-09-25T08:40:53.480Z,9.10
2022-09-25T08:42:56.185Z,8.90
2022-09-25T08:45:22.155Z,9.33
2022-09-25T08:47:43.504Z,9.23
2022-09-25T08:49:47.438Z,8.57
2022-09-25T08:51:51.414Z,8.40
2022-09-25T08:53:55.426Z,8.80
2022-09-25T08:56:17.583Z,9.80
2022-09-25T08:58:22.366Z,10.05
2022-09-25T09:00:25.179Z,10.80
2022-09-25T09:02:33.406Z,11.27
2022-09-25T09:04:38.040Z,28.33
2022-09-25T09:06:40.738Z,26.97
2022-09-25T09:08:44.555Z,11.20
2022-09-25T09:10:51.761Z,11.23
2022-09-25T09:12:57.165Z,9.67
2022-09-25T09:15:08.377Z,9.00
2022-09-25T09:17:18.021Z,10.00
2022-09-25T09:19:20.701Z,10.40
2022-09-25T09:21:26.493Z,11.20
2022-09-25T09:23:32.468Z,9.17
2022-09-25T09:25:36.821Z,9.20
2022-09-25T09:27:52.085Z,9.63
2022-09-25T09:30:05.185Z,9.30
2022-09-25T09:32:21.510Z,9.30
2022-09-25T09:35:04.291Z,9.30
2022-09-25T09:37:05.844Z,8.73
2022-09-25T09:39:13.193Z,8.33
2022-09-25T09:41:22.548Z,8.60
2022-09-25T09:43:36.741Z,7.10
2022-09-25T09:45:45.180Z,6.30
2022-09-25T09:47:50.639Z,6.30
2022-09-25T09:49:54.426Z,5.90
2022-09-25T09:51:58.845Z,5.03
2022-09-25T09:54:03.437Z,6.10
2022-09-25T09:56:09.334Z,5.03
2022-09-25T09:58:14.498Z,5.73
2022-09-25T10:00:19.921Z,5.50
2022-09-25T10:02:31.083Z,5.73
2022-09-25T10:04:36.552Z,5.20
2022-09-25T10:06:40.160Z,5.00
2022-09-25T10:08:42.909Z,5.53
2022-09-25T10:10:47.322Z,5.90
2022-09-25T10:12:51.248Z,4.73
2022-09-25T10:14:53.935Z,4.83
2022-09-25T10:16:58.099Z,4.97
2022-09-25T10:19:02.454Z,5.80
2022-09-25T10:21:06.558Z,4.67
2022-09-25T10:23:18.184Z,5.20
2022-09-25T10:25:35.799Z,4.40
2022-09-25T10:27:41.295Z,5.10
2022-09-25T10:29:44.073Z,5.50
2022-09-25T10:31:46.761Z,5.43
2022-09-25T10:34:07.550Z,5.40
2022-09-25T10:36:10.243Z,5.37
2022-09-25T10:38:21.628Z,4.90
2022-09-25T10:40:29.521Z,4.47
2022-09-25T10:42:37.356Z,5.00
2022-09-25T10:44:40.380Z,4.70
2022-09-25T10:47:00.866Z,3.97
2022-09-25T10:49:33.154Z,4.50
2022-09-25T10:51:35.832Z,4.13
2022-09-25T10:53:38.693Z,4.10
2022-09-25T10:55:43.962Z,4.10
2022-09-25T10:57:46.914Z,4.47
2022-09-25T10:59:50.145Z,3.93
2022-09-25T11:01:54.591Z,3.70
2022-09-25T11:03:58.150Z,3.10
2022-09-25T11:06:04.019Z,3.10
2022-09-25T11:08:07.949Z,3.03
2022-09-25T11:10:20.594Z,2.73
2022-09-25T11:12:24.416Z,3.30
2022-09-25T11:14:32.819Z,2.90
2022-09-25T11:16:46.762Z,3.00
2022-09-25T11:18:50.346Z,2.90
2022-09-25T11:21:03.404Z,2.67
2022-09-25T11:23:24.417Z,2.63
2022-09-25T11:25:29.441Z,2.73
2022-09-25T11:27:35.110Z,2.47
2022-09-25T11:29:44.265Z,2.50
2022-09-25T11:31:49.064Z,2.53
2022-09-25T11:33:53.968Z,2.30
2022-09-25T11:36:07.116Z,1.63
2022-09-25T11:38:15.640Z,2.00
2022-09-25T11:40:45.072Z,1.80
2022-09-25T11:42:50.465Z,1.90
2022-09-25T11:44:57.852Z,1.87
2022-09-25T11:47:02.268Z,1.70
2022-09-25T11:49:12.338Z,1.80
2022-09-25T11:51:22.457Z,1.90
2022-09-25T11:53:29.512Z,1.90
2022-09-25T11:55:47.127Z,1.83
2022-09-25T11:57:57.045Z,2.10
2022-09-25T12:00:05.777Z,1.70
2022-09-25T12:02:19.744Z,1.50
2022-09-25T12:04:35.044Z,1.97
2022-09-25T12:07:04.162Z,1.60
2022-09-25T12:09:15.202Z,1.57
2022-09-25T12:11:21.516Z,1.57
2022-09-25T12:13:28.455Z,1.70
2022-09-25T12:15:42.177Z,1.70
2022-09-25T12:17:49.289Z,1.70
2022-09-25T12:19:54.689Z,1.83
2022-09-25T12:22:01.171Z,1.67
2022-09-25T12:24:10.103Z,1.60
2022-09-25T12:26:17.337Z,1.30
2022-09-25T12:28:24.961Z,1.07
2022-09-25T12:30:31.121Z,1.37
2022-09-25T12:32:40.721Z,1.80
2022-09-25T12:34:55.690Z,1.60
2022-09-25T12:37:03.212Z,1.20
2022-09-25T12:39:28.769Z,1.50
2022-09-25T12:41:35.144Z,1.73
2022-09-25T12:43:41.138Z,103.47
2022-09-25T12:45:45.919Z,3.57
2022-09-25T12:48:01.056Z,2.27
2022-09-25T12:50:04.972Z,1.60
2022-09-25T12:52:11.524Z,1.50
2022-09-25T12:54:22.745Z,1.40
2022-09-25T12:56:27.024Z,1.33
2022-09-25T12:58:38.471Z,1.50
2022-09-25T13:01:04.151Z,1.70
2022-09-25T13:03:29.841Z,1.50
2022-09-25T13:05:34.118Z,0.97
2022-09-25T13:07:39.519Z,1.67
2022-09-25T13:09:45.177Z,1.10
2022-09-25T13:11:50.875Z,1.30
2022-09-25T13:13:53.982Z,2.33
2022-09-25T13:15:58.277Z,1.60
2022-09-25T13:18:01.017Z,1.60
2022-09-25T13:20:42.279Z,122.97
2022-09-25T13:22:44.928Z,2.53
2022-09-25T13:24:52.339Z,1.60
2022-09-25T13:26:56.515Z,2.90
2022-09-25T13:29:00.565Z,1.60
2022-09-25T13:31:09.110Z,1.40
2022-09-25T13:33:18.762Z,1.30
2022-09-25T13:35:22.788Z,1.67
2022-09-25T13:37:28.205Z,1.80
2022-09-25T13:39:50.597Z,1.50
2022-09-25T13:41:56.236Z,1.80
2022-09-25T13:44:37.435Z,1.57
2022-09-25T13:46:40.120Z,1.60
2022-09-25T13:48:42.786Z,1.83
2022-09-25T13:50:45.893Z,1.83
2022-09-25T13:53:13.528Z,1.97
2022-09-25T13:55:18.369Z,1.90
2022-09-25T13:57:36.379Z,1.57
2022-09-25T13:59:39.419Z,1.80
2022-09-25T14:01:43.504Z,2.00
2022-09-25T14:03:46.726Z,2.00
2022-09-25T14:05:49.419Z,1.80
2022-09-25T14:07:55.396Z,2.10
2022-09-25T14:09:58.753Z,2.00
2022-09-25T14:12:06.401Z,2.67
2022-09-25T14:14:13.510Z,2.70
2022-09-25T14:16:20.559Z,2.40
2022-09-25T14:18:24.680Z,2.00
2022-09-25T14:20:31.957Z,1.80
2022-09-25T14:22:41.211Z,1.50
2022-09-25T14:24:45.191Z,2.20
2022-09-25T14:26:48.211Z,2.17
2022-09-25T14:28:51.530Z,2.00
2022-09-25T14:31:06.868Z,2.17
2022-09-25T14:33:24.919Z,3.50
2022-09-25T14:35:34.253Z,3.63
2022-09-25T14:37:51.185Z,2.33
2022-09-25T14:39:58.450Z,2.10
2022-09-25T14:42:26.131Z,1.60
2022-09-25T14:44:51.324Z,2.60
2022-09-25T14:46:55.594Z,2.20
2022-09-25T14:48:59.489Z,1.97
2022-09-25T14:51:04.222Z,1.90
2022-09-25T14:53:10.415Z,2.40
2022-09-25T14:55:16.276Z,2.20
2022-09-25T14:57:23.387Z,2.10
2022-09-25T14:59:31.303Z,2.10
2022-09-25T15:01:34.224Z,42.73
2022-09-25T15:03:43.297Z,2.53
2022-09-25T15:05:47.657Z,1.80
2022-09-25T15:07:50.383Z,2.00
2022-09-25T15:09:55.424Z,2.50
2022-09-25T15:11:58.170Z,1.80
2022-09-25T15:14:11.055Z,2.87
2022-09-25T15:16:32.710Z,3.20
2022-09-25T15:18:38.745Z,2.30
2022-09-25T15:20:46.224Z,2.57
2022-09-25T15:22:50.180Z,1.80
2022-09-25T15:24:54.808Z,2.20
2022-09-25T15:27:02.693Z,1.50
2022-09-25T15:29:05.364Z,1.83
2022-09-25T15:31:08.117Z,2.00
2022-09-25T15:33:20.921Z,1.57
2022-09-25T15:35:26.005Z,1.60
2022-09-25T15:37:29.437Z,2.00
2022-09-25T15:39:32.365Z,1.40
2022-09-25T15:41:35.058Z,1.93
2022-09-25T15:43:37.735Z,2.23
2022-09-25T15:45:43.388Z,1.50
2022-09-25T15:47:51.655Z,2.07
2022-09-25T15:49:55.775Z,1.87
2022-09-25T15:52:00.966Z,1.50
2022-09-25T15:54:04.694Z,1.83
2022-09-25T15:56:14.328Z,2.00
2022-09-25T15:58:17.630Z,2.33
2022-09-25T16:00:38.912Z,1.90
2022-09-25T16:03:01.051Z,2.00
2022-09-25T16:05:03.773Z,1.57
2022-09-25T16:09:37.667Z,1.83
2022-09-25T16:11:40.856Z,2.07
2022-09-25T16:13:44.704Z,1.77
2022-09-25T16:15:51.725Z,1.90
2022-09-25T16:17:55.747Z,1.70
2022-09-25T16:20:00.006Z,1.57
2022-09-25T16:22:14.973Z,1.33
2022-09-25T16:24:19.781Z,1.40
2022-09-25T16:26:26.399Z,1.80
2022-09-25T16:28:29.931Z,1.77
2022-09-25T16:30:32.602Z,2.37
2022-09-25T16:32:35.758Z,1.60
2022-09-25T16:34:38.957Z,1.93
2022-09-25T16:36:43.045Z,1.90
2022-09-25T16:39:12.011Z,1.83
2022-09-25T16:41:21.200Z,2.30
2022-09-25T16:43:26.674Z,1.80
2022-09-25T16:45:33.137Z,1.50
2022-09-25T16:47:36.056Z,1.80
2022-09-25T16:49:38.765Z,1.67
2022-09-25T16:51:45.300Z,1.60
2022-09-25T16:53:50.221Z,1.73
2022-09-25T16:55:53.167Z,1.80
2022-09-25T16:57:56.197Z,1.60
2022-09-25T17:00:01.049Z,1.70
2022-09-25T17:02:05.819Z,1.43
2022-09-25T17:04:09.534Z,1.60
2022-09-25T17:06:12.231Z,1.80
2022-09-25T17:08:17.384Z,1.60
2022-09-25T17:10:22.252Z,1.90
2022-09-25T17:12:24.967Z,1.60
2022-09-25T17:14:28.486Z,1.90
2022-09-25T17:16:32.608Z,2.90
2022-09-25T17:18:35.324Z,2.20
2022-09-25T17:20:38.005Z,1.80
2022-09-25T17:22:40.702Z,2.00
2022-09-25T17:24:43.441Z,1.90
2022-09-25T17:26:46.651Z,1.83
2022-09-25T17:28:49.426Z,1.30
2022-09-25T17:30:52.349Z,1.40
2022-09-25T17:32:56.413Z,2.00
2022-09-25T17:34:59.504Z,1.27
2022-09-25T17:37:02.375Z,1.77
2022-09-25T17:39:05.126Z,2.03
2022-09-25T17:41:09.009Z,1.70
2022-09-25T17:43:12.462Z,1.70
2022-09-25T17:45:24.120Z,1.60
2022-09-25T17:47:27.399Z,2.17
2022-09-25T17:49:32.312Z,1.73
2022-09-25T17:51:34.995Z,1.83
2022-09-25T17:53:38.115Z,1.50
2022-09-25T17:55:40.804Z,2.03
2022-09-25T17:57:43.495Z,1.70
2022-09-25T17:59:46.420Z,1.30
2022-09-25T18:01:49.199Z,2.07
2022-09-25T18:03:52.065Z,2.00
2022-09-25T18:05:56.136Z,2.50
2022-09-25T18:07:59.373Z,2.20
2022-09-25T18:10:02.066Z,1.90
2022-09-25T18:12:04.853Z,1.90
2022-09-25T18:14:07.519Z,2.20
2022-09-25T18:16:16.363Z,1.60
2022-09-25T18:18:19.224Z,1.90
2022-09-25T18:20:39.610Z,2.30
2022-09-25T18:22:43.949Z,2.47
2022-09-25T18:24:46.736Z,3.00
2022-09-25T18:26:49.433Z,2.53
2022-09-25T18:28:52.118Z,2.40
2022-09-25T18:30:54.838Z,3.23
2022-09-25T18:32:57.592Z,2.50
2022-09-25T18:35:02.320Z,2.60
2022-09-25T18:37:05.018Z,2.60
2022-09-25T18:39:09.182Z,2.73
2022-09-25T18:41:12.097Z,2.40
2022-09-25T18:43:14.799Z,2.43
2022-09-25T18:45:18.177Z,2.17
2022-09-25T18:47:21.005Z,1.93
2022-09-25T18:49:26.233Z,1.97
2022-09-25T18:51:28.908Z,2.00
2022-09-25T18:53:32.785Z,2.17
2022-09-25T18:55:38.393Z,2.37
2022-09-25T18:57:42.625Z,1.70
2022-09-25T18:59:45.310Z,2.17
2022-09-25T19:01:48.080Z,2.70
2022-09-25T19:03:51.809Z,2.53
2022-09-25T19:05:58.689Z,2.40
2022-09-25T19:08:03.317Z,3.20
2022-09-25T19:10:09.425Z,2.33
2022-09-25T19:12:16.999Z,2.97
2022-09-25T19:14:19.840Z,2.50
2022-09-25T19:16:22.711Z,2.90
2022-09-25T19:18:25.677Z,2.60
2022-09-25T19:20:28.734Z,3.00
2022-09-25T19:22:31.421Z,3.00
2022-09-25T19:24:36.451Z,3.30
2022-09-25T19:26:41.482Z,2.70
2022-09-25T19:28:45.522Z,3.13
2022-09-25T19:30:56.937Z,2.90
2022-09-25T19:32:59.662Z,3.47
2022-09-25T19:35:02.348Z,2.90
2022-09-25T19:37:05.131Z,2.70
2022-09-25T19:39:07.825Z,3.37
2022-09-25T19:41:12.969Z,2.73
2022-09-25T19:43:15.659Z,3.43
2022-09-25T19:45:21.065Z,3.07
2022-09-25T19:47:23.882Z,3.63
2022-09-25T19:49:26.638Z,3.73
2022-09-25T19:51:30.076Z,4.00
2022-09-25T19:53:32.949Z,3.50
2022-09-25T19:55:36.935Z,3.57
2022-09-25T19:57:39.669Z,3.50
2022-09-25T19:59:42.373Z,4.03
2022-09-25T20:01:46.547Z,3.50
2022-09-25T20:03:49.307Z,2.93
2022-09-25T20:05:51.989Z,3.57
2022-09-25T20:07:55.015Z,3.60
2022-09-25T20:09:57.692Z,3.90
2022-09-25T20:12:00.382Z,4.23
2022-09-25T20:14:03.615Z,4.80
2022-09-25T20:16:10.299Z,3.43
2022-09-25T20:18:14.388Z,3.67
2022-09-25T20:20:17.128Z,4.10
2022-09-25T20:22:19.816Z,3.20
2022-09-25T20:24:22.907Z,3.63
2022-09-25T20:26:26.002Z,3.67
2022-09-25T20:28:28.692Z,3.93
2022-09-25T20:30:35.352Z,3.57
2022-09-25T20:32:38.653Z,3.73
2022-09-25T20:34:42.655Z,3.13
2022-09-25T20:36:46.438Z,3.73
2022-09-25T20:38:50.538Z,3.57
2022-09-25T20:40:53.551Z,3.67
2022-09-25T20:42:56.284Z,3.70
2022-09-25T20:44:58.992Z,4.60
2022-09-25T20:47:01.673Z,3.67
2022-09-25T20:49:04.582Z,3.53
2022-09-25T20:51:10.113Z,3.30
2022-09-25T20:53:12.801Z,3.80
2022-09-25T20:55:16.011Z,3.57
2022-09-25T20:57:18.720Z,3.30
2022-09-25T20:59:21.429Z,3.70
2022-09-25T21:01:26.289Z,3.63
2022-09-25T21:03:31.015Z,4.40
2022-09-25T21:05:37.970Z,4.30
2022-09-25T21:07:41.988Z,4.67
2022-09-25T21:09:44.673Z,4.80
2022-09-25T21:11:47.501Z,4.60
2022-09-25T21:13:50.994Z,4.57
2022-09-25T21:15:53.712Z,5.10
2022-09-25T21:17:56.408Z,4.60
2022-09-25T21:20:00.066Z,6.30
2022-09-25T21:22:02.776Z,4.67
2022-09-25T21:24:07.242Z,6.53
2022-09-25T21:26:11.011Z,4.83
2022-09-25T21:28:13.716Z,4.80
2022-09-25T21:30:16.689Z,4.83
2022-09-25T21:32:19.361Z,4.23
2022-09-25T21:34:22.053Z,4.33
2022-09-25T21:36:24.988Z,4.60
2022-09-25T21:38:27.723Z,4.83
2022-09-25T21:40:31.787Z,4.03
2022-09-25T21:42:34.536Z,4.23
2022-09-25T21:44:38.056Z,4.40
2022-09-25T21:46:40.904Z,4.40
2022-09-25T21:48:48.517Z,3.40
2022-09-25T21:50:54.560Z,3.60
2022-09-25T21:52:57.258Z,3.17
2022-09-25T21:54:59.953Z,3.67
2022-09-25T21:57:03.998Z,3.20
2022-09-25T21:59:09.134Z,3.80
2022-09-25T22:01:13.655Z,3.37
2022-09-25T22:03:16.492Z,3.77
2022-09-25T22:05:19.192Z,3.67
2022-09-25T22:07:23.666Z,3.53
2022-09-25T22:09:27.353Z,4.20
2022-09-25T22:11:30.151Z,3.30
2022-09-25T22:13:35.344Z,3.60
2022-09-25T22:15:38.026Z,4.13
2022-09-25T22:17:40.710Z,3.40
2022-09-25T22:19:43.712Z,4.27
2022-09-25T22:21:47.272Z,3.30
2022-09-25T22:23:49.984Z,3.00
2022-09-25T22:25:52.833Z,4.13
2022-09-25T22:27:55.528Z,3.50
2022-09-25T22:29:59.540Z,4.30
2022-09-25T22:32:02.481Z,3.50
2022-09-25T22:34:06.857Z,4.40
2022-09-25T22:36:10.408Z,3.30
2022-09-25T22:38:13.109Z,3.40
2022-09-25T22:40:15.940Z,4.47
2022-09-25T22:42:18.661Z,3.23
2022-09-25T22:44:21.592Z,3.50
2022-09-25T22:46:25.903Z,2.90
2022-09-25T22:48:29.009Z,4.10
2022-09-25T22:50:31.679Z,3.50
2022-09-25T22:52:35.112Z,3.30
2022-09-25T22:54:37.834Z,4.03
2022-09-25T22:56:40.516Z,3.73
2022-09-25T22:58:43.366Z,3.50
2022-09-25T23:00:47.078Z,3.83
2022-09-25T23:02:51.122Z,3.60
2022-09-25T23:04:54.124Z,3.83
2022-09-25T23:06:56.893Z,3.60
2022-09-25T23:09:00.421Z,3.73
2022-09-25T23:11:07.648Z,3.30
2022-09-25T23:13:10.745Z,2.87
2022-09-25T23:15:13.441Z,3.37
2022-09-25T23:17:16.119Z,3.47
2022-09-25T23:19:20.268Z,3.33
2022-09-25T23:21:22.944Z,3.10
2022-09-25T23:23:26.071Z,3.80
2022-09-25T23:25:28.740Z,3.47
2022-09-25T23:27:31.432Z,2.87
2022-09-25T23:29:34.099Z,3.50
2022-09-25T23:31:36.777Z,3.03
2022-09-25T23:33:40.341Z,3.23
2022-09-25T23:35:44.339Z,3.10
2022-09-25T23:37:47.037Z,3.30
2022-09-25T23:39:50.031Z,2.80
2022-09-25T23:41:52.718Z,2.90
2022-09-25T23:43:55.822Z,3.10
2022-09-25T23:45:58.559Z,3.40
2022-09-25T23:48:01.487Z,2.40
2022-09-25T23:50:04.904Z,2.70
2022-09-25T23:52:09.107Z,2.80
2022-09-25T23:54:12.135Z,2.70
2022-09-25T23:56:15.829Z,2.73
2022-09-25T23:58:19.015Z,2.87
